createdAt,value
2022-10-05T00:00:51.502Z,64.50
2022-10-05T00:03:18.375Z,64.40
2022-10-05T00:05:45.610Z,64.30
2022-10-05T00:08:15.768Z,65.40
2022-10-05T00:10:42.572Z,64.60
2022-10-05T00:13:29.109Z,64.70
2022-10-05T00:16:04.234Z,64.60
2022-10-05T00:18:31.278Z,64.80
2022-10-05T00:20:58.104Z,64.70
2022-10-05T00:23:29.680Z,65.40
2022-10-05T00:26:01.631Z,64.50
2022-10-05T00:28:30.478Z,64.50
2022-10-05T00:30:58.065Z,64.50
2022-10-05T00:33:25.827Z,64.50
2022-10-05T00:35:52.517Z,64.50
2022-10-05T00:38:19.205Z,64.50
2022-10-05T00:41:24.870Z,64.50
2022-10-05T00:44:13.510Z,64.60
2022-10-05T00:47:27.928Z,64.60
2022-10-05T00:49:57.399Z,64.50
2022-10-05T00:52:46.823Z,64.40
2022-10-05T00:55:17.265Z,64.40
2022-10-05T00:58:27.013Z,64.50
2022-10-05T01:00:56.434Z,64.50
2022-10-05T01:03:52.812Z,64.60
2022-10-05T01:06:36.138Z,64.70
2022-10-05T01:09:28.026Z,64.80
2022-10-05T01:12:00.188Z,64.80
2022-10-05T01:14:45.470Z,64.90
2022-10-05T01:17:17.051Z,65.00
2022-10-05T01:20:12.984Z,65.10
2022-10-05T01:22:42.628Z,66.00
2022-10-05T01:25:45.319Z,65.50
2022-10-05T01:28:19.123Z,65.30
2022-10-05T01:31:07.466Z,65.10
2022-10-05T01:33:47.017Z,65.10
2022-10-05T01:37:04.258Z,65.10
2022-10-05T01:39:37.601Z,64.90
2022-10-05T01:42:29.202Z,64.80
2022-10-05T01:45:21.224Z,64.70
2022-10-05T01:47:53.590Z,65.40
2022-10-05T01:50:27.026Z,64.60
2022-10-05T01:52:56.929Z,64.60
2022-10-05T01:55:53.320Z,64.70
2022-10-05T01:58:35.701Z,64.80
2022-10-05T02:01:11.887Z,64.70
2022-10-05T02:03:44.937Z,64.50
2022-10-05T02:06:20.773Z,64.40
2022-10-05T02:09:14.634Z,64.50
2022-10-05T02:11:41.365Z,64.40
2022-10-05T02:14:20.565Z,64.50
2022-10-05T02:16:47.886Z,64.40
2022-10-05T02:19:27.483Z,64.60
2022-10-05T02:22:05.232Z,64.60
2022-10-05T02:24:43.662Z,64.70
2022-10-05T02:27:10.683Z,64.70
2022-10-05T02:29:39.636Z,64.60
2022-10-05T02:32:21.864Z,64.70
2022-10-05T02:34:48.808Z,64.70
2022-10-05T02:37:38.758Z,64.70
2022-10-05T02:40:27.887Z,64.70
2022-10-05T02:43:16.538Z,64.80
2022-10-05T02:46:05.711Z,64.70
2022-10-05T02:48:53.501Z,64.70
2022-10-05T02:51:24.972Z,64.80
2022-10-05T02:54:09.724Z,65.00
2022-10-05T02:56:56.010Z,65.10
2022-10-05T02:59:48.776Z,65.20
2022-10-05T03:02:28.055Z,65.30
2022-10-05T03:05:31.929Z,65.20
2022-10-05T03:08:06.195Z,65.30
2022-10-05T03:10:37.377Z,65.40
2022-10-05T03:13:17.246Z,65.40
2022-10-05T03:15:49.387Z,65.40
2022-10-05T03:18:37.048Z,65.50
2022-10-05T03:21:27.127Z,65.10
2022-10-05T03:24:06.268Z,65.10
2022-10-05T03:26:35.837Z,65.90
2022-10-05T03:29:11.215Z,65.20
2022-10-05T03:31:45.023Z,65.30
2022-10-05T03:34:32.199Z,65.30
2022-10-05T03:37:23.307Z,65.50
2022-10-05T03:40:20.241Z,65.50
2022-10-05T03:43:15.281Z,65.40
2022-10-05T03:45:54.381Z,65.40
2022-10-05T03:48:32.223Z,65.40
2022-10-05T03:51:20.408Z,65.30
2022-10-05T03:53:53.170Z,65.30
2022-10-05T03:56:30.058Z,65.20
2022-10-05T03:59:15.722Z,65.30
2022-10-05T04:02:01.929Z,65.40
2022-10-05T04:04:50.172Z,65.20
2022-10-05T04:07:51.140Z,64.90
2022-10-05T04:10:21.888Z,65.00
2022-10-05T04:12:51.535Z,65.10
2022-10-05T04:15:27.234Z,65.30
2022-10-05T04:18:00.803Z,65.10
2022-10-05T04:20:43.897Z,65.20
2022-10-05T04:23:10.553Z,66.00
2022-10-05T04:25:45.463Z,65.30
2022-10-05T04:28:33.316Z,65.30
2022-10-05T04:31:00.164Z,65.30
2022-10-05T04:33:26.954Z,65.50
2022-10-05T04:35:57.842Z,65.60
2022-10-05T04:38:33.432Z,65.60
2022-10-05T04:41:18.458Z,65.70
2022-10-05T04:43:56.897Z,65.70
2022-10-05T04:46:38.604Z,65.80
2022-10-05T04:49:14.297Z,65.90
2022-10-05T04:51:59.967Z,66.00
2022-10-05T04:54:47.802Z,66.00
2022-10-05T04:57:18.827Z,65.90
2022-10-05T05:00:14.822Z,65.80
2022-10-05T05:02:49.065Z,65.90
2022-10-05T05:06:05.123Z,66.00
2022-10-05T05:08:45.300Z,66.10
2022-10-05T05:11:22.397Z,66.00
2022-10-05T05:14:09.817Z,65.90
2022-10-05T05:16:41.362Z,65.80
2022-10-05T05:19:39.936Z,65.60
2022-10-05T05:22:26.076Z,65.40
2022-10-05T05:25:17.707Z,65.50
2022-10-05T05:28:11.000Z,65.50
2022-10-05T05:31:00.935Z,65.60
2022-10-05T05:34:01.887Z,66.60
2022-10-05T05:36:47.473Z,65.70
2022-10-05T05:39:29.291Z,65.60
2022-10-05T05:42:01.607Z,65.50
2022-10-05T05:44:35.293Z,65.60
2022-10-05T05:47:14.457Z,65.70
2022-10-05T05:49:49.907Z,65.80
2022-10-05T05:52:38.914Z,65.70
2022-10-05T05:55:19.139Z,65.60
2022-10-05T05:58:02.948Z,65.60
2022-10-05T06:00:46.972Z,65.70
2022-10-05T06:03:13.701Z,65.70
2022-10-05T06:05:58.418Z,65.70
2022-10-05T06:08:44.582Z,65.70
2022-10-05T06:11:28.594Z,65.70
2022-10-05T06:13:58.188Z,65.90
2022-10-05T06:16:40.877Z,65.80
2022-10-05T06:19:17.696Z,66.00
2022-10-05T06:21:55.482Z,66.10
2022-10-05T06:24:31.657Z,66.20
2022-10-05T06:27:49.378Z,66.10
2022-10-05T06:30:16.920Z,66.10
2022-10-05T06:33:07.647Z,66.40
2022-10-05T06:36:11.612Z,66.50
2022-10-05T06:38:41.114Z,66.60
2022-10-05T06:41:14.286Z,66.80
2022-10-05T06:43:46.455Z,66.90
2022-10-05T06:46:13.560Z,67.00
2022-10-05T06:49:13.654Z,67.30
2022-10-05T06:51:40.327Z,67.80
2022-10-05T06:54:34.596Z,67.90
2022-10-05T06:57:36.698Z,68.00
2022-10-05T07:00:20.110Z,68.10
2022-10-05T07:02:54.370Z,68.10
2022-10-05T07:05:48.095Z,68.50
2022-10-05T07:08:52.646Z,68.50
2022-10-05T07:12:00.886Z,68.70
2022-10-05T07:14:43.412Z,68.70
2022-10-05T07:17:26.453Z,68.70
2022-10-05T07:20:20.664Z,68.90
2022-10-05T07:22:56.095Z,69.00
2022-10-05T07:25:36.773Z,69.00
2022-10-05T07:28:47.349Z,68.90
2022-10-05T07:31:31.504Z,69.10
2022-10-05T07:34:06.953Z,69.00
2022-10-05T07:37:12.130Z,69.20
2022-10-05T07:40:00.262Z,69.10
2022-10-05T07:43:03.314Z,69.50
2022-10-05T07:45:32.278Z,69.30
2022-10-05T07:48:13.990Z,69.20
2022-10-05T07:50:54.914Z,69.50
2022-10-05T07:53:25.770Z,69.30
2022-10-05T07:55:57.878Z,69.40
2022-10-05T07:58:48.224Z,68.60
2022-10-05T08:01:22.734Z,68.50
2022-10-05T08:03:59.884Z,68.90
2022-10-05T08:06:27.089Z,68.60
2022-10-05T08:08:57.375Z,68.90
2022-10-05T08:11:48.881Z,68.80
2022-10-05T08:14:28.632Z,68.80
2022-10-05T08:16:55.934Z,69.00
2022-10-05T08:19:26.482Z,68.90
2022-10-05T08:22:00.465Z,69.10
2022-10-05T08:24:41.617Z,69.20
2022-10-05T08:27:15.226Z,69.30
2022-10-05T08:30:01.398Z,69.30
2022-10-05T08:32:35.731Z,69.40
2022-10-05T08:35:28.838Z,69.60
2022-10-05T08:37:55.604Z,69.50
2022-10-05T08:40:46.837Z,69.00
2022-10-05T08:43:41.296Z,69.10
2022-10-05T08:46:35.136Z,69.00
2022-10-05T08:49:56.490Z,69.00
2022-10-05T08:52:43.725Z,68.90
2022-10-05T08:55:10.442Z,68.80
2022-10-05T08:57:39.746Z,68.80
2022-10-05T09:00:28.341Z,68.80
2022-10-05T09:03:08.294Z,68.80
2022-10-05T09:05:54.638Z,68.80
2022-10-05T09:08:45.478Z,68.80
2022-10-05T09:11:31.856Z,68.80
2022-10-05T09:14:35.822Z,68.90
2022-10-05T09:17:44.266Z,68.80
2022-10-05T09:20:30.597Z,68.70
2022-10-05T09:23:12.515Z,68.40
2022-10-05T09:25:51.280Z,68.40
2022-10-05T09:28:39.779Z,68.60
2022-10-05T09:31:19.085Z,68.60
2022-10-05T09:33:53.175Z,68.50
2022-10-05T09:36:42.605Z,68.70
2022-10-05T09:51:24.554Z,68.40
2022-10-05T09:54:03.425Z,68.00
2022-10-05T09:56:56.589Z,68.00
2022-10-05T09:59:47.428Z,67.90
2022-10-05T10:02:52.451Z,68.10
2022-10-05T10:05:34.609Z,68.10
2022-10-05T10:08:22.097Z,67.90
2022-10-05T10:11:27.837Z,67.60
2022-10-05T10:14:00.300Z,67.40
2022-10-05T10:16:32.284Z,67.70
2022-10-05T10:19:17.456Z,68.10
2022-10-05T10:22:02.995Z,67.60
2022-10-05T10:25:07.802Z,67.40
2022-10-05T10:28:13.222Z,67.70
2022-10-05T10:31:09.825Z,67.20
2022-10-05T10:33:51.640Z,66.90
2022-10-05T10:36:19.319Z,66.80
2022-10-05T10:38:59.221Z,65.90
2022-10-05T10:41:55.378Z,65.50
2022-10-05T10:44:48.802Z,65.80
2022-10-05T10:47:40.132Z,64.90
2022-10-05T10:50:24.538Z,64.30
2022-10-05T10:53:18.529Z,63.10
2022-10-05T10:56:00.090Z,62.40
2022-10-05T10:58:39.799Z,62.20
2022-10-05T11:01:32.780Z,62.10
2022-10-05T11:04:43.933Z,61.10
2022-10-05T11:07:29.275Z,60.70
2022-10-05T11:10:10.738Z,61.00
2022-10-05T11:12:52.668Z,60.60
2022-10-05T11:15:37.977Z,60.00
2022-10-05T11:18:11.542Z,59.40
2022-10-05T11:21:15.676Z,59.90
2022-10-05T11:23:48.504Z,59.30
2022-10-05T11:26:27.114Z,59.70
2022-10-05T11:29:41.500Z,59.50
2022-10-05T11:32:21.114Z,59.50
2022-10-05T11:34:56.191Z,59.30
2022-10-05T11:37:59.397Z,59.20
2022-10-05T11:41:22.945Z,58.90
2022-10-05T11:44:27.098Z,58.80
2022-10-05T11:47:04.140Z,58.70
2022-10-05T11:49:33.325Z,58.10
2022-10-05T11:52:37.263Z,57.60
2022-10-05T11:55:19.272Z,57.70
2022-10-05T11:57:50.461Z,57.60
2022-10-05T12:00:40.374Z,56.70
2022-10-05T12:03:30.478Z,57.00
2022-10-05T12:06:04.161Z,57.00
2022-10-05T12:08:52.330Z,56.80
2022-10-05T12:11:43.607Z,56.30
2022-10-05T12:14:37.221Z,56.30
2022-10-05T12:17:12.739Z,56.70
2022-10-05T12:19:42.293Z,56.50
2022-10-05T12:22:27.301Z,56.50
2022-10-05T12:25:19.155Z,56.60
2022-10-05T12:27:46.606Z,56.20
2022-10-05T12:30:47.070Z,56.00
2022-10-05T12:33:35.453Z,56.00
2022-10-05T12:36:05.865Z,55.90
2022-10-05T12:38:48.779Z,55.70
2022-10-05T12:41:27.591Z,54.80
2022-10-05T12:44:20.608Z,55.10
2022-10-05T12:47:12.554Z,55.30
2022-10-05T12:49:56.746Z,54.90
2022-10-05T12:52:46.640Z,54.40
2022-10-05T12:55:15.508Z,54.70
2022-10-05T12:58:05.339Z,54.20
2022-10-05T13:00:34.320Z,54.20
2022-10-05T13:03:04.333Z,54.50
2022-10-05T13:06:04.248Z,54.50
2022-10-05T13:08:45.246Z,54.50
2022-10-05T13:11:16.992Z,53.90
2022-10-05T13:14:11.033Z,53.70
2022-10-05T13:17:01.437Z,53.90
2022-10-05T13:19:57.534Z,53.90
2022-10-05T13:22:27.112Z,53.80
2022-10-05T13:25:05.856Z,53.90
2022-10-05T13:27:36.727Z,53.20
2022-10-05T13:30:13.416Z,53.00
2022-10-05T13:32:44.060Z,52.90
2022-10-05T13:35:34.230Z,53.00
2022-10-05T13:38:03.789Z,53.50
2022-10-05T13:40:36.803Z,53.70
2022-10-05T13:43:14.530Z,53.90
2022-10-05T13:45:52.707Z,53.80
2022-10-05T13:48:58.997Z,54.30
2022-10-05T13:51:34.268Z,54.30
2022-10-05T13:54:05.296Z,54.20
2022-10-05T13:56:37.670Z,54.10
2022-10-05T13:59:32.130Z,54.30
2022-10-05T14:02:09.067Z,54.00
2022-10-05T14:04:53.515Z,53.80
2022-10-05T14:07:24.294Z,53.60
2022-10-05T14:09:51.094Z,53.80
2022-10-05T14:12:22.320Z,54.00
2022-10-05T14:14:53.963Z,53.80
2022-10-05T14:17:36.667Z,54.00
2022-10-05T14:20:31.531Z,53.60
2022-10-05T14:23:01.253Z,53.70
2022-10-05T14:25:29.152Z,54.00
2022-10-05T14:28:24.161Z,54.10
2022-10-05T14:31:23.810Z,54.30
2022-10-05T14:33:50.552Z,54.00
2022-10-05T14:36:36.185Z,53.80
2022-10-05T14:39:05.091Z,53.80
2022-10-05T14:41:35.724Z,53.80
2022-10-05T14:44:06.101Z,53.80
2022-10-05T14:46:33.027Z,53.90
2022-10-05T14:49:25.766Z,54.10
2022-10-05T14:51:53.373Z,54.40
2022-10-05T14:54:30.271Z,54.70
2022-10-05T14:57:23.278Z,55.00
2022-10-05T15:00:05.169Z,55.20
2022-10-05T15:02:35.664Z,55.30
2022-10-05T15:05:15.299Z,55.30
2022-10-05T15:07:43.919Z,55.50
2022-10-05T15:10:26.973Z,55.50
2022-10-05T15:12:55.420Z,55.60
2022-10-05T15:15:32.777Z,55.80
2022-10-05T15:18:06.905Z,55.90
2022-10-05T15:20:53.947Z,55.90
2022-10-05T15:23:25.974Z,55.90
2022-10-05T15:26:07.823Z,55.90
2022-10-05T15:28:48.955Z,56.00
2022-10-05T15:31:40.598Z,56.10
2022-10-05T15:34:17.908Z,56.30
2022-10-05T15:36:53.145Z,56.50
2022-10-05T15:39:34.727Z,56.50
2022-10-05T15:42:03.733Z,56.60
2022-10-05T15:44:52.168Z,56.90
2022-10-05T15:47:52.487Z,57.00
2022-10-05T15:50:32.365Z,57.10
2022-10-05T15:53:08.507Z,57.30
2022-10-05T15:55:47.842Z,57.20
2022-10-05T15:58:45.570Z,57.20
2022-10-05T16:01:40.356Z,57.10
2022-10-05T16:04:30.621Z,57.30
2022-10-05T16:07:17.750Z,57.50
2022-10-05T16:10:04.150Z,57.70
2022-10-05T16:12:45.469Z,58.10
2022-10-05T16:15:18.665Z,58.20
2022-10-05T16:18:03.693Z,58.20
2022-10-05T16:20:59.970Z,58.30
2022-10-05T16:24:09.237Z,58.30
2022-10-05T16:26:56.674Z,58.50
2022-10-05T16:29:47.479Z,58.60
2022-10-05T16:32:30.305Z,58.80
2022-10-05T16:35:21.164Z,59.00
2022-10-05T16:38:29.249Z,59.10
2022-10-05T16:41:03.912Z,59.30
2022-10-05T16:43:44.773Z,59.40
2022-10-05T16:46:27.508Z,59.60
2022-10-05T16:49:11.149Z,59.70
2022-10-05T16:51:43.672Z,59.80
2022-10-05T16:54:18.393Z,59.90
2022-10-05T16:56:47.033Z,59.80
2022-10-05T16:59:32.252Z,60.00
2022-10-05T17:02:45.786Z,60.20
2022-10-05T17:05:34.247Z,60.40
2022-10-05T17:08:36.609Z,60.40
2022-10-05T17:11:33.878Z,60.40
2022-10-05T17:14:09.898Z,60.50
2022-10-05T17:16:57.227Z,60.50
2022-10-05T17:19:32.753Z,60.70
2022-10-05T17:22:01.057Z,60.90
2022-10-05T17:24:42.160Z,61.00
2022-10-05T17:27:21.596Z,61.30
2022-10-05T17:29:51.814Z,61.40
2022-10-05T17:32:18.573Z,61.30
2022-10-05T17:35:02.908Z,61.60
2022-10-05T17:37:39.957Z,61.50
2022-10-05T17:40:37.857Z,61.50
2022-10-05T17:43:16.507Z,61.20
2022-10-05T17:45:43.187Z,61.40
2022-10-05T17:48:10.828Z,61.40
2022-10-05T17:51:05.528Z,61.30
2022-10-05T17:54:04.065Z,61.30
2022-10-05T17:56:31.830Z,61.40
2022-10-05T17:59:00.038Z,61.20
2022-10-05T18:01:39.825Z,61.10
2022-10-05T18:04:12.783Z,61.20
2022-10-05T18:06:51.858Z,61.40
2022-10-05T18:09:22.750Z,61.60
2022-10-05T18:12:07.658Z,61.70
2022-10-05T18:14:59.313Z,61.80
2022-10-05T18:17:51.487Z,61.60
2022-10-05T18:20:24.307Z,61.40
2022-10-05T18:22:53.089Z,61.50
2022-10-05T18:25:25.908Z,61.50
2022-10-05T18:28:00.882Z,61.60
2022-10-05T18:30:28.739Z,61.60
2022-10-05T18:33:09.110Z,61.60
2022-10-05T18:35:42.448Z,61.80
2022-10-05T18:38:28.105Z,61.80
2022-10-05T18:41:07.202Z,61.70
2022-10-05T18:43:33.859Z,61.90
2022-10-05T18:46:12.714Z,62.00
2022-10-05T18:49:06.632Z,62.00
2022-10-05T18:51:48.428Z,61.70
2022-10-05T18:54:47.307Z,61.90
2022-10-05T18:57:50.896Z,61.90
2022-10-05T19:00:21.488Z,62.00
2022-10-05T19:02:51.950Z,61.90
2022-10-05T19:05:50.084Z,62.00
2022-10-05T19:08:32.777Z,61.80
2022-10-05T19:11:07.746Z,61.60
2022-10-05T19:14:09.468Z,61.70
2022-10-05T19:16:47.337Z,61.70
2022-10-05T19:19:34.781Z,61.70
2022-10-05T19:22:16.417Z,61.90
2022-10-05T19:24:51.856Z,62.00
2022-10-05T19:27:34.938Z,62.10
2022-10-05T19:30:13.777Z,62.00
2022-10-05T19:33:12.338Z,62.10
2022-10-05T19:36:00.970Z,62.00
2022-10-05T19:38:36.540Z,62.00
2022-10-05T19:41:41.530Z,62.10
2022-10-05T19:44:11.410Z,62.20
2022-10-05T19:47:00.406Z,62.40
2022-10-05T19:49:36.505Z,62.30
2022-10-05T19:52:06.133Z,62.30
2022-10-05T19:54:32.866Z,62.40
2022-10-05T19:57:02.844Z,62.40
2022-10-05T19:59:31.704Z,62.60
2022-10-05T20:01:58.754Z,62.50
2022-10-05T20:04:32.144Z,62.70
2022-10-05T20:06:59.703Z,62.80
2022-10-05T20:09:26.352Z,62.80
2022-10-05T20:11:53.362Z,62.80
2022-10-05T20:14:21.839Z,62.80
2022-10-05T20:17:07.129Z,63.10
2022-10-05T20:19:52.382Z,62.50
2022-10-05T20:22:26.454Z,62.20
2022-10-05T20:24:54.807Z,62.20
2022-10-05T20:27:39.875Z,63.20
2022-10-05T20:30:07.524Z,62.40
2022-10-05T20:32:34.352Z,62.40
2022-10-05T20:35:01.073Z,62.40
2022-10-05T20:37:28.005Z,62.40
2022-10-05T20:39:54.699Z,62.40
2022-10-05T20:42:22.996Z,62.30
2022-10-05T20:44:54.319Z,62.50
2022-10-05T20:47:23.444Z,62.50
2022-10-05T20:49:50.177Z,62.70
2022-10-05T20:52:17.040Z,62.90
2022-10-05T20:54:43.770Z,62.90
2022-10-05T20:57:10.501Z,62.90
2022-10-05T20:59:37.456Z,63.00
2022-10-05T21:02:04.409Z,63.00
2022-10-05T21:04:41.704Z,62.90
2022-10-05T21:07:08.587Z,63.40
2022-10-05T21:09:38.224Z,63.50
2022-10-05T21:12:05.014Z,63.60
2022-10-05T21:14:34.396Z,63.70
2022-10-05T21:17:02.075Z,63.70
2022-10-05T21:19:29.529Z,63.80
2022-10-05T21:21:59.381Z,63.80
2022-10-05T21:24:26.256Z,63.70
2022-10-05T21:26:57.679Z,63.70
2022-10-05T21:29:24.418Z,63.80
2022-10-05T21:31:51.254Z,63.90
2022-10-05T21:34:18.015Z,64.00
2022-10-05T21:36:44.728Z,64.10
2022-10-05T21:39:11.542Z,64.00
2022-10-05T21:41:38.261Z,64.10
2022-10-05T21:44:06.326Z,64.40
2022-10-05T21:46:33.028Z,65.40
2022-10-05T21:48:59.772Z,64.10
2022-10-05T21:51:26.506Z,63.80
2022-10-05T21:54:03.573Z,63.80
2022-10-05T21:56:37.405Z,63.60
2022-10-05T21:59:05.374Z,63.70
2022-10-05T22:01:32.221Z,63.90
2022-10-05T22:03:58.981Z,63.70
2022-10-05T22:06:25.704Z,64.40
2022-10-05T22:08:52.429Z,63.80
2022-10-05T22:11:19.155Z,63.70
2022-10-05T22:13:47.562Z,63.70
2022-10-05T22:16:14.594Z,63.80
2022-10-05T22:18:41.431Z,63.90
2022-10-05T22:21:08.371Z,64.00
2022-10-05T22:23:35.995Z,64.00
2022-10-05T22:26:03.045Z,64.00
2022-10-05T22:28:31.135Z,64.00
2022-10-05T22:30:59.003Z,64.30
2022-10-05T22:33:25.774Z,64.30
2022-10-05T22:35:52.524Z,64.20
2022-10-05T22:38:19.208Z,64.30
2022-10-05T22:40:45.989Z,64.40
2022-10-05T22:43:12.899Z,64.50
2022-10-05T22:45:39.709Z,64.50
2022-10-05T22:48:06.439Z,64.50
2022-10-05T22:50:33.117Z,64.40
2022-10-05T22:52:59.795Z,64.40
2022-10-05T22:55:26.476Z,64.50
2022-10-05T22:57:53.118Z,64.50
2022-10-05T23:00:24.728Z,64.50
2022-10-05T23:02:54.458Z,64.50
2022-10-05T23:05:21.520Z,64.50
2022-10-05T23:07:48.206Z,64.50
2022-10-05T23:10:16.712Z,64.20
2022-10-05T23:12:43.540Z,64.30
2022-10-05T23:15:10.492Z,63.90
2022-10-05T23:17:38.980Z,63.90
2022-10-05T23:20:07.904Z,64.00
2022-10-05T23:22:38.187Z,64.20
2022-10-05T23:25:05.691Z,64.00
2022-10-05T23:27:39.227Z,65.30
2022-10-05T23:30:07.154Z,65.50
2022-10-05T23:32:40.967Z,65.60
2022-10-05T23:35:08.959Z,65.70
2022-10-05T23:37:39.747Z,65.60
2022-10-05T23:40:07.908Z,65.60
2022-10-05T23:42:35.045Z,65.60
2022-10-05T23:45:01.973Z,65.40
2022-10-05T23:47:28.688Z,65.30
2022-10-05T23:49:55.499Z,65.60
2022-10-05T23:52:22.288Z,65.70
2022-10-05T23:54:48.927Z,65.60
2022-10-05T23:57:17.831Z,65.50
2022-10-05T23:59:44.908Z,65.40
